Meteorología y climatología de Navarra
Datos de la estación - Meteo Navarra

Estación de Etxarri-Aranatz GN

Altitud 505 m.


Datos desde el 11/01/2019 hasta el 12/01/2019 en horario solar
Los datos son PROVISIONALES

Anterior Página 1 de 1 Siguiente Descargar: Formato para Excel 2000 o superior   Formato csv   Formato para OpenOffice Calc
Fecha Temperatura Humedad relativa Radiación global Insolación Precipitación Velocidad viento 10 m Velocidad viento 10 m Dirección viento 10 m
ºC % W/m² s l/m² m/s km/h º
11/01/2019 0:00 1.3 71 0.0 0 0.0 2.4 8.5 281
11/01/2019 0:10 1.4 71 0.0 0 0.0 2.1 7.4 295
11/01/2019 0:20 1.3 71 0.0 0 0.0 1.7 6.0 282
11/01/2019 0:30 1.1 71 0.0 0 0.0 2.0 7.3 290
11/01/2019 0:40 1.3 69 0.0 0 0.0 4.2 15.0 313
11/01/2019 0:50 1.5 67 0.0 0 0.0 4.1 14.7 318
11/01/2019 1:00 1.4 67 0.0 0 0.0 3.2 11.3 317
11/01/2019 1:10 1.3 68 0.0 0 0.0 3.0 10.8 314
11/01/2019 1:20 1.3 69 0.0 0 0.0 2.2 8.0 313
11/01/2019 1:30 1.2 68 0.0 0 0.0 3.0 10.8 324
11/01/2019 1:40 1.3 68 0.0 0 0.0 3.0 10.7 324
11/01/2019 1:50 1.2 69 0.0 0 0.0 2.6 9.4 319
11/01/2019 2:00 1.2 68 0.0 0 0.0 3.2 11.4 322
11/01/2019 2:10 1.0 67 0.0 0 0.0 3.5 12.7 336
11/01/2019 2:20 1.0 68 0.0 0 0.0 3.0 10.8 333
11/01/2019 2:30 1.0 66 0.0 0 0.0 3.2 11.6 337
11/01/2019 2:40 0.9 66 0.0 0 0.0 3.1 11.3 347
11/01/2019 2:50 0.8 66 0.0 0 0.0 3.9 14.0 327
11/01/2019 3:00 0.9 65 0.0 0 0.0 3.3 12.0 341
11/01/2019 3:10 0.9 65 0.0 0 0.0 3.0 10.8 360
11/01/2019 3:20 0.9 65 0.0 0 0.0 2.9 10.5 344
11/01/2019 3:30 0.9 65 0.0 0 0.0 3.5 12.5 330
11/01/2019 3:40 0.8 66 0.0 0 0.0 3.2 11.4 323
11/01/2019 3:50 0.7 66 0.0 0 0.0 3.2 11.4 322
11/01/2019 4:00 0.6 68 0.0 0 0.0 3.9 13.9 326
11/01/2019 4:10 0.8 68 0.0 0 0.0 4.2 15.2 327
11/01/2019 4:20 0.7 68 0.0 0 0.0 3.6 12.9 333
11/01/2019 4:30 0.6 69 0.0 0 0.0 3.7 13.2 323
11/01/2019 4:40 0.6 69 0.0 0 0.0 4.0 14.2 320
11/01/2019 4:50 0.7 69 0.0 0 0.0 3.3 11.9 317
11/01/2019 5:00 0.7 69 0.0 0 0.0 4.0 14.3 319
11/01/2019 5:10 0.5 70 0.0 0 0.0 3.6 12.9 321
11/01/2019 5:20 0.5 70 0.0 0 0.0 3.2 11.6 319
11/01/2019 5:30 0.6 69 0.0 0 0.0 3.4 12.1 327
11/01/2019 5:40 0.5 69 0.0 0 0.0 3.6 13.0 320
11/01/2019 5:50 0.6 69 0.0 0 0.0 4.2 15.0 323
11/01/2019 6:00 0.7 68 0.0 0 0.0 4.2 15.2 325
11/01/2019 6:10 0.7 69 0.0 0 0.0 4.1 14.8 324
11/01/2019 6:20 0.7 69 0.0 0 0.0 3.5 12.7 324
11/01/2019 6:30 0.5 70 0.0 0 0.0 3.5 12.6 321
11/01/2019 6:40 0.7 69 0.0 0 0.0 4.3 15.4 327
11/01/2019 6:50 0.7 68 0.0 0 0.0 3.7 13.3 326
11/01/2019 7:00 0.8 68 0.0 0 0.0 3.4 12.3 332
11/01/2019 7:10 0.9 67 0.0 0 0.0 4.5 16.2 321
11/01/2019 7:20 0.9 68 0.0 0 0.0 3.4 12.1 332
11/01/2019 7:30 0.7 69 0.0 0 0.0 2.9 10.6 330
11/01/2019 7:40 0.7 70 0.0 0 0.0 3.3 11.8 326
11/01/2019 7:50 0.7 70 0.0 0 0.0 3.1 11.2 333
11/01/2019 8:00 0.8 71 0.0 0 0.0 3.5 12.6 330
11/01/2019 8:10 0.9 70 9.8 0 0.0 4.3 15.4 330
11/01/2019 8:20 0.9 69 55.0 504 0.0 3.3 11.7 329
11/01/2019 8:30 1.1 67 80.4 590 0.0 3.6 13.0 333
11/01/2019 8:40 1.4 65 105.2 600 0.0 3.8 13.7 329
11/01/2019 8:50 1.5 64 127.0 600 0.0 3.1 11.3 340
11/01/2019 9:00 1.6 63 153.3 600 0.0 4.1 14.6 333
11/01/2019 9:10 1.9 61 180.8 600 0.0 2.4 8.7 345
11/01/2019 9:20 2.1 60 200.2 594 0.0 3.9 14.2 331
11/01/2019 9:30 2.2 58 226.5 600 0.0 2.8 10.2 342
11/01/2019 9:40 2.5 58 252.7 600 0.0 1.7 6.0 354
11/01/2019 9:50 2.7 54 275.0 600 0.0 1.9 6.8 342
11/01/2019 10:00 3.0 53 297.0 600 0.0 1.5 5.5 356
11/01/2019 10:10 3.2 51 317.7 600 0.0 1.5 5.2 33
11/01/2019 10:20 3.5 49 336.6 600 0.0 1.2 4.3 21
11/01/2019 10:30 3.6 48 360.5 600 0.0 1.3 4.7 8
11/01/2019 10:40 3.6 47 392.4 600 0.0 2.3 8.1 15
11/01/2019 10:50 3.8 47 419.7 600 0.0 1.5 5.3 358
11/01/2019 11:00 4.2 44 444.7 600 0.0 1.4 4.9 11
11/01/2019 11:10 4.2 41 461.5 600 0.0 2.2 7.7 7
11/01/2019 11:20 4.2 39 465.4 600 0.0 2.9 10.3 335
11/01/2019 11:30 4.3 40 376.2 476 0.0 2.2 7.8 348
11/01/2019 11:40 4.2 42 294.1 282 0.0 0.8 3.0 357
11/01/2019 11:50 4.5 41 395.3 468 0.0 2.3 8.2 332
11/01/2019 12:00 4.4 42 349.3 404 0.0 2.7 9.5 331
11/01/2019 12:10 4.2 44 436.2 480 0.0 3.7 13.5 336
11/01/2019 12:20 4.4 47 331.9 364 0.0 2.8 10.0 318
11/01/2019 12:30 4.4 48 412.7 390 0.0 3.8 13.6 337
11/01/2019 12:40 4.2 51 192.0 54 0.0 2.2 8.0 337
11/01/2019 12:50 4.3 52 273.8 236 0.0 2.6 9.4 355
11/01/2019 13:00 4.3 52 151.8 48 0.0 2.4 8.7 349
11/01/2019 13:10 4.2 53 141.9 0 0.0 2.8 10.1 347
11/01/2019 13:20 4.3 53 123.2 0 0.0 2.7 9.8 354
11/01/2019 13:30 4.2 52 113.6 0 0.0 4.4 15.7 334
11/01/2019 13:40 4.1 53 112.1 0 0.0 3.0 10.9 352
11/01/2019 13:50 4.0 54 114.3 38 0.0 2.7 9.7 348
11/01/2019 14:00 4.4 55 264.9 326 0.0 2.7 9.7 16
11/01/2019 14:10 4.6 55 233.0 302 0.0 2.9 10.4 19
11/01/2019 14:20 4.6 55 243.1 344 0.0 2.6 9.4 17
11/01/2019 14:30 4.6 54 277.5 496 0.0 2.6 9.4 2
11/01/2019 14:40 4.5 54 263.7 502 0.0 3.1 11.1 353
11/01/2019 14:50 4.6 54 275.6 600 0.0 2.8 10.0 335
11/01/2019 15:00 4.6 53 141.8 234 0.0 2.9 10.5 341
11/01/2019 15:10 4.1 55 79.8 74 0.0 2.5 8.8 346
11/01/2019 15:20 4.0 56 125.2 266 0.0 3.7 13.2 328
11/01/2019 15:30 4.0 56 107.4 216 0.0 2.7 9.8 336
11/01/2019 15:40 3.9 56 55.4 0 0.0 2.8 10.2 328
11/01/2019 15:50 3.8 58 40.4 0 0.0 2.3 8.4 316
11/01/2019 16:00 3.6 59 32.6 0 0.0 2.1 7.6 315
11/01/2019 16:10 3.6 59 29.0 0 0.0 2.5 8.9 316
11/01/2019 16:20 3.5 60 22.0 0 0.0 1.8 6.4 303
11/01/2019 16:30 3.6 60 8.2 0 0.0 2.0 7.3 317
11/01/2019 16:40 3.4 60 0.0 0 0.0 2.1 7.4 307
11/01/2019 16:50 3.5 60 0.0 0 0.0 2.6 9.4 335
11/01/2019 17:00 3.4 61 0.0 0 0.0 2.0 7.3 306
11/01/2019 17:10 3.5 60 0.0 0 0.0 2.7 9.6 315
11/01/2019 17:20 3.4 60 0.0 0 0.0 2.5 9.0 323
11/01/2019 17:30 3.6 60 0.0 0 0.0 3.0 10.7 336
11/01/2019 17:40 3.5 61 0.0 0 0.0 1.6 5.9 285
11/01/2019 17:50 3.5 62 0.0 0 0.0 2.2 7.9 289
11/01/2019 18:00 3.6 62 0.0 0 0.0 2.1 7.6 295
11/01/2019 18:10 3.5 62 0.0 0 0.0 1.7 6.3 284
11/01/2019 18:20 3.2 63 0.0 0 0.0 1.4 4.9 271
11/01/2019 18:30 3.1 63 0.0 0 0.0 1.3 4.6 278
11/01/2019 18:40 3.1 63 0.0 0 0.0 1.7 6.2 303
11/01/2019 18:50 3.3 62 0.0 0 0.0 1.8 6.5 296
11/01/2019 19:00 3.1 62 0.0 0 0.0 1.3 4.7 296
11/01/2019 19:10 2.9 64 0.0 0 0.0 1.8 6.5 283
11/01/2019 19:20 2.9 64 0.0 0 0.0 1.8 6.6 299
11/01/2019 19:30 2.9 64 0.0 0 0.0 2.1 7.7 285
11/01/2019 19:40 2.7 64 0.0 0 0.0 2.2 7.8 276
11/01/2019 19:50 2.7 65 0.0 0 0.0 2.0 7.2 270
11/01/2019 20:00 2.7 65 0.0 0 0.0 2.4 8.5 267
11/01/2019 20:10 2.6 66 0.0 0 0.0 2.3 8.2 271
11/01/2019 20:20 2.5 67 0.0 0 0.0 2.3 8.4 266
11/01/2019 20:30 2.6 68 0.0 0 0.0 2.7 9.9 261
11/01/2019 20:40 2.7 68 0.0 0 0.0 2.6 9.4 261
11/01/2019 20:50 2.7 68 0.0 0 0.0 2.1 7.7 262
11/01/2019 21:00 2.7 68 0.0 0 0.0 2.3 8.1 274
11/01/2019 21:10 2.8 69 0.0 0 0.0 1.4 4.9 267
11/01/2019 21:20 2.8 69 0.0 0 0.0 1.7 6.2 266
11/01/2019 21:30 2.8 69 0.0 0 0.0 1.6 5.9 267
11/01/2019 21:40 2.8 69 0.0 0 0.0 1.5 5.3 269
11/01/2019 21:50 2.8 69 0.0 0 0.0 1.7 6.3 281
11/01/2019 22:00 2.8 70 0.0 0 0.0 1.6 5.8 280
11/01/2019 22:10 2.8 71 0.0 0 0.0 1.5 5.5 275
11/01/2019 22:20 2.7 71 0.0 0 0.0 1.1 4.1 277
11/01/2019 22:30 2.8 72 0.0 0 0.0 1.3 4.6 283
11/01/2019 22:40 2.7 73 0.0 0 0.0 1.0 3.6 273
11/01/2019 22:50 2.7 74 0.0 0 0.0 1.2 4.1 282
11/01/2019 23:00 2.8 75 0.0 0 0.0 1.0 3.6 274
11/01/2019 23:10 2.9 75 0.0 0 0.0 0.9 3.3 271
11/01/2019 23:20 2.8 75 0.0 0 0.0 2.0 7.1 256
11/01/2019 23:30 2.5 76 0.0 0 0.0 2.1 7.5 269
11/01/2019 23:40 2.5 77 0.0 0 0.0 2.1 7.6 258
11/01/2019 23:50 2.5 77 0.0 0 0.0 1.7 6.2 268
Anterior Página 1 de 1 Siguiente

NOTA: Tipo de datos según el color:
   - Valores diarios o 10 minutos correctos
   - Valores diarios calculados a partir de un número de datos 10 minutos menor que 144 y mayor que 120, o de un número de datos semihorarios menor que 48 y mayor que 40 (caso de las estaciones de Riegos de Navarra y del MARM)
   - Valores diez minutos estimados


Contacto        Enlaces        Aviso legal